Time;durP1;ratioP1;P1;durP2;ratioP2;P2;SDS_P1;SDS_P2;PMS_P1;PMS_P2;Temp;Humidity;BMP_temperature;BMP_pressure;BME280_temperature;BME280_humidity;BME280_pressure;Samples;Min_cycle;Max_cycle;Signal;HPM_P1;HPM_P2
2021/04/27 00:00:23;;;;;;;13.20;9.67;;;12.00;99.90;;;;;;5070491;28;20692;-72
2021/04/27 00:02:49;;;;;;;11.33;9.83;;;12.00;99.90;;;;;;5070712;28;20201;-71
2021/04/27 00:05:17;;;;;;;11.90;8.00;;;11.90;99.90;;;;;;5070717;28;20210;-72
2021/04/27 00:07:44;;;;;;;12.30;8.67;;;12.00;99.90;;;;;;5070191;28;20205;-73
2021/04/27 00:10:14;;;;;;;10.70;8.73;;;12.00;99.90;;;;;;5070349;28;20609;-72
2021/04/27 00:12:41;;;;;;;12.77;9.90;;;12.00;99.90;;;;;;5070408;28;20213;-71
2021/04/27 00:15:11;;;;;;;9.30;8.50;;;12.00;99.90;;;;;;5070917;28;20739;-71
2021/04/27 00:17:38;;;;;;;12.90;9.30;;;12.00;99.90;;;;;;5070802;28;20213;-71
2021/04/27 00:20:07;;;;;;;9.63;7.93;;;11.80;99.90;;;;;;5070754;28;20705;-71
2021/04/27 00:22:33;;;;;;;9.20;7.80;;;11.80;99.90;;;;;;5069017;28;20251;-73
2021/04/27 00:25:01;;;;;;;11.00;8.45;;;11.80;99.90;;;;;;5070311;28;20206;-73
2021/04/27 00:27:28;;;;;;;9.67;7.80;;;11.80;99.90;;;;;;5070437;28;20256;-72
2021/04/27 00:29:55;;;;;;;8.30;7.60;;;11.70;99.90;;;;;;5070225;28;20206;-72
2021/04/27 00:32:21;;;;;;;11.40;7.30;;;11.70;99.90;;;;;;5070487;28;20202;-71
2021/04/27 00:34:48;;;;;;;8.47;7.00;;;11.80;99.90;;;;;;5070081;28;20206;-72
2021/04/27 00:37:15;;;;;;;8.77;7.13;;;11.80;99.90;;;;;;5070203;28;20221;-72
2021/04/27 00:39:42;;;;;;;7.70;6.30;;;11.80;99.90;;;;;;5070383;28;20198;-71
2021/04/27 00:42:08;;;;;;;8.33;7.30;;;11.80;99.90;;;;;;5070392;28;20648;-71
2021/04/27 00:44:36;;;;;;;7.47;6.50;;;11.80;99.90;;;;;;5070351;28;20209;-72
2021/04/27 00:47:03;;;;;;;9.90;6.83;;;11.80;99.90;;;;;;5072144;28;20776;-72
2021/04/27 00:49:29;;;;;;;9.80;6.40;;;11.90;99.90;;;;;;5074146;28;20682;-73
2021/04/27 00:51:56;;;;;;;7.67;5.90;;;11.80;99.90;;;;;;5073990;28;20343;-72
2021/04/27 00:54:22;;;;;;;6.47;5.90;;;11.90;99.90;;;;;;5074165;28;20701;-72
2021/04/27 00:56:49;;;;;;;7.97;5.63;;;11.90;99.90;;;;;;5073916;28;20201;-72
2021/04/27 00:59:15;;;;;;;8.93;5.90;;;11.90;99.90;;;;;;5074518;28;20210;-72
2021/04/27 01:01:44;;;;;;;10.03;5.87;;;11.80;99.90;;;;;;5073846;28;20206;-72
2021/04/27 01:04:11;;;;;;;7.30;5.83;;;11.80;99.90;;;;;;5074293;28;20332;-72
2021/04/27 01:06:37;;;;;;;6.50;5.90;;;11.80;99.90;;;;;;5073718;28;20226;-72
2021/04/27 01:09:10;;;;;;;9.17;6.13;;;11.80;99.90;;;;;;5074187;28;20708;-73
2021/04/27 01:11:45;;;;;;;7.93;6.27;;;11.70;99.90;;;;;;5074488;28;20202;-73
2021/04/27 01:14:16;;;;;;;7.03;6.03;;;11.70;99.90;;;;;;5073866;28;20262;-73
2021/04/27 01:16:47;;;;;;;7.70;6.03;;;11.70;99.90;;;;;;5073388;28;20297;-73
2021/04/27 01:19:17;;;;;;;6.07;5.53;;;11.80;99.90;;;;;;5073684;28;20202;-72
2021/04/27 01:21:45;;;;;;;7.90;5.37;;;11.70;99.90;;;;;;5073403;28;20252;-73
2021/04/27 01:24:22;;;;;;;7.07;6.47;;;11.80;99.90;;;;;;5073638;28;20206;-73
2021/04/27 01:26:52;;;;;;;7.10;5.87;;;11.70;99.90;;;;;;5073222;28;20260;-74
2021/04/27 01:29:22;;;;;;;6.93;5.17;;;11.50;99.90;;;;;;5073622;28;20695;-73
2021/04/27 01:31:50;;;;;;;6.70;5.93;;;11.70;99.90;;;;;;5073513;28;20213;-74
2021/04/27 01:34:21;;;;;;;8.07;6.83;;;11.70;99.90;;;;;;5073230;28;20217;-73
2021/04/27 01:36:47;;;;;;;9.77;6.37;;;11.70;99.90;;;;;;5073073;28;20210;-72
2021/04/27 01:39:14;;;;;;;5.60;5.00;;;11.70;99.90;;;;;;5073595;28;20237;-73
2021/04/27 01:41:41;;;;;;;6.93;5.37;;;11.70;99.90;;;;;;5072915;28;20607;-72
2021/04/27 01:44:10;;;;;;;6.37;5.73;;;11.60;99.90;;;;;;5073380;28;20214;-71
2021/04/27 01:46:37;;;;;;;6.67;5.97;;;11.70;99.90;;;;;;5073589;28;20230;-72
2021/04/27 01:49:04;;;;;;;5.70;5.20;;;11.80;99.90;;;;;;5072945;28;20688;-73
2021/04/27 01:51:32;;;;;;;6.70;5.73;;;11.70;99.90;;;;;;5073340;28;20578;-72
2021/04/27 01:53:59;;;;;;;8.00;5.00;;;11.70;99.90;;;;;;5072918;28;20198;-72
2021/04/27 01:56:27;;;;;;;5.87;5.13;;;11.80;99.90;;;;;;5072825;28;20217;-72
2021/04/27 01:58:53;;;;;;;6.03;5.17;;;11.80;99.90;;;;;;5072511;28;20207;-72
2021/04/27 02:01:21;;;;;;;7.50;5.43;;;11.80;99.90;;;;;;5073373;28;20206;-73
2021/04/27 02:03:48;;;;;;;6.97;5.23;;;11.80;99.90;;;;;;5072452;28;20205;-74
2021/04/27 02:06:15;;;;;;;6.47;5.80;;;11.80;99.90;;;;;;5073173;28;20238;-72
2021/04/27 02:08:47;;;;;;;6.00;5.40;;;11.70;99.90;;;;;;5072197;28;20276;-72
2021/04/27 02:11:14;;;;;;;6.43;5.67;;;11.60;99.90;;;;;;5072979;28;20207;-74
2021/04/27 02:13:41;;;;;;;5.73;5.23;;;11.50;99.90;;;;;;5072336;28;20214;-72
2021/04/27 02:16:09;;;;;;;7.60;6.47;;;11.40;99.90;;;;;;5073178;28;20205;-73
2021/04/27 02:18:40;;;;;;;7.33;6.73;;;11.40;99.90;;;;;;5072880;28;20243;-74
2021/04/27 02:21:08;;;;;;;8.43;7.13;;;11.50;99.90;;;;;;5073054;28;20207;-73
2021/04/27 02:23:36;;;;;;;11.03;6.40;;;11.50;99.90;;;;;;5082403;28;20263;-73
2021/04/27 02:26:03;;;;;;;7.27;6.60;;;11.50;99.90;;;;;;5092859;28;20255;-72
2021/04/27 02:28:32;;;;;;;8.40;7.60;;;11.60;99.90;;;;;;5092593;28;20201;-73
2021/04/27 02:30:59;;;;;;;10.17;7.93;;;11.50;99.90;;;;;;5092321;28;20568;-72
2021/04/27 02:33:25;;;;;;;10.03;7.27;;;11.50;99.90;;;;;;5092601;28;20221;-72
2021/04/27 02:35:53;;;;;;;9.47;7.87;;;11.40;99.90;;;;;;5092233;28;20214;-72
2021/04/27 02:38:20;;;;;;;9.10;7.00;;;11.40;99.90;;;;;;5092992;28;20222;-72
2021/04/27 02:40:51;;;;;;;8.97;7.93;;;11.40;99.90;;;;;;5092195;28;20231;-72
2021/04/27 02:43:18;;;;;;;8.60;6.47;;;11.50;99.90;;;;;;5092624;28;20202;-75
2021/04/27 02:45:45;;;;;;;9.37;6.87;;;11.40;99.90;;;;;;5092200;28;20269;-72
2021/04/27 02:48:14;;;;;;;9.43;7.93;;;11.40;99.90;;;;;;5091868;28;20594;-72
2021/04/27 02:50:44;;;;;;;8.90;7.20;;;11.50;99.90;;;;;;5091953;28;20555;-73
2021/04/27 02:53:12;;;;;;;10.23;7.43;;;11.50;99.90;;;;;;5092125;28;20629;-73
2021/04/27 02:55:39;;;;;;;11.33;7.63;;;11.50;99.90;;;;;;5092524;28;20209;-73
2021/04/27 02:58:06;;;;;;;8.10;7.40;;;11.50;99.90;;;;;;5092083;28;20677;-73
2021/04/27 03:00:33;;;;;;;9.43;7.10;;;11.50;99.90;;;;;;5092240;28;20202;-75
2021/04/27 03:02:59;;;;;;;7.93;7.20;;;11.50;99.90;;;;;;5091749;28;20205;-73
2021/04/27 03:05:25;;;;;;;7.70;7.07;;;11.60;99.90;;;;;;5091935;28;20228;-75
2021/04/27 03:07:52;;;;;;;7.73;6.50;;;11.60;99.90;;;;;;5091892;28;20296;-73
2021/04/27 03:10:20;;;;;;;6.63;5.80;;;11.60;99.90;;;;;;5091068;28;20348;-75
2021/04/27 03:12:46;;;;;;;7.43;6.80;;;11.60;99.90;;;;;;5091593;28;20213;-74
2021/04/27 03:15:15;;;;;;;8.00;7.20;;;11.60;99.90;;;;;;5091760;28;20694;-74
2021/04/27 03:17:42;;;;;;;6.90;6.17;;;11.60;99.90;;;;;;5091802;28;20251;-75
2021/04/27 03:20:10;;;;;;;7.57;6.70;;;11.60;99.90;;;;;;5091915;28;20206;-74
2021/04/27 03:22:37;;;;;;;9.47;7.70;;;11.60;99.90;;;;;;5092345;28;20209;-74
2021/04/27 03:25:05;;;;;;;7.57;6.83;;;11.60;99.90;;;;;;5091910;28;20209;-75
2021/04/27 03:27:32;;;;;;;9.20;7.03;;;11.70;99.90;;;;;;5091894;28;20229;-72
2021/04/27 03:29:59;;;;;;;11.13;6.37;;;11.60;99.90;;;;;;5091147;28;20208;-74
2021/04/27 03:32:25;;;;;;;7.23;6.57;;;11.70;99.90;;;;;;5091404;28;20205;-74
2021/04/27 03:34:52;;;;;;;6.57;5.97;;;11.70;99.90;;;;;;5091369;28;20205;-74
2021/04/27 03:37:19;;;;;;;6.83;6.23;;;11.70;99.90;;;;;;5091248;28;20267;-76
2021/04/27 03:39:45;;;;;;;7.43;6.60;;;11.70;99.90;;;;;;5091318;28;20557;-73
2021/04/27 03:42:12;;;;;;;7.27;6.50;;;11.70;99.90;;;;;;5091442;28;20672;-73
2021/04/27 03:44:39;;;;;;;7.90;7.20;;;11.60;99.90;;;;;;5090927;28;20201;-71
2021/04/27 03:47:06;;;;;;;7.63;6.83;;;11.60;99.90;;;;;;5091526;28;20263;-75
2021/04/27 03:49:33;;;;;;;7.63;6.80;;;11.60;99.90;;;;;;5091289;28;20220;-73
2021/04/27 03:51:59;;;;;;;7.20;6.50;;;11.60;99.90;;;;;;5090916;28;20712;-74
2021/04/27 03:54:26;;;;;;;9.40;6.97;;;11.60;99.90;;;;;;5090918;28;20209;-73
2021/04/27 03:56:53;;;;;;;10.17;7.33;;;11.50;99.90;;;;;;5090813;28;20202;-72
2021/04/27 03:59:20;;;;;;;11.33;8.87;;;11.50;99.90;;;;;;5090743;28;20665;-72
2021/04/27 04:01:48;;;;;;;11.80;8.27;;;11.40;99.90;;;;;;5090770;28;20259;-73
2021/04/27 04:04:14;;;;;;;9.67;8.47;;;11.40;99.90;;;;;;5091063;28;20210;-75
2021/04/27 04:06:40;;;;;;;8.77;7.97;;;11.50;99.90;;;;;;5086661;28;20242;-72
2021/04/27 04:09:09;;;;;;;8.43;7.73;;;11.50;99.90;;;;;;5064287;28;20206;-71
2021/04/27 04:11:36;;;;;;;8.80;7.93;;;11.60;99.90;;;;;;5088410;28;20585;-72
2021/04/27 04:14:03;;;;;;;8.60;7.80;;;11.70;99.90;;;;;;5084092;28;20254;-79
2021/04/27 04:16:30;;;;;;;9.37;8.00;;;11.70;99.90;;;;;;5091001;28;20201;-74
2021/04/27 04:18:58;;;;;;;8.73;7.80;;;11.70;99.90;;;;;;5090482;28;20208;-74
2021/04/27 04:21:25;;;;;;;9.80;7.97;;;11.70;99.90;;;;;;5090617;28;20754;-77
2021/04/27 04:23:52;;;;;;;12.50;7.30;;;11.70;99.90;;;;;;5090704;28;20198;-78
2021/04/27 04:26:19;;;;;;;9.10;8.07;;;11.70;99.90;;;;;;5086553;28;20225;-82
2021/04/27 04:28:45;;;;;;;11.43;8.23;;;11.70;99.90;;;;;;5090141;28;20630;-73
2021/04/27 04:31:12;;;;;;;9.70;8.43;;;11.70;99.90;;;;;;5090779;28;20255;-76
2021/04/27 04:33:39;;;;;;;13.83;8.50;;;11.70;99.90;;;;;;5090734;28;20205;-81
2021/04/27 04:36:07;;;;;;;10.37;9.20;;;11.70;99.90;;;;;;5090833;28;20212;-72
2021/04/27 04:38:34;;;;;;;9.67;8.73;;;11.70;99.90;;;;;;5090781;28;20650;-77
2021/04/27 04:41:00;;;;;;;9.77;8.87;;;11.70;99.90;;;;;;5090146;28;20212;-74
2021/04/27 04:43:27;;;;;;;8.93;8.03;;;11.70;99.90;;;;;;5090149;28;20698;-73
2021/04/27 04:45:54;;;;;;;12.40;10.43;;;11.70;99.90;;;;;;5090088;28;20229;-73
2021/04/27 04:48:21;;;;;;;9.20;8.40;;;11.70;99.90;;;;;;5090576;28;20592;-76
2021/04/27 04:50:48;;;;;;;9.87;8.97;;;11.80;99.90;;;;;;5090176;28;20210;-73
2021/04/27 04:53:16;;;;;;;14.87;10.60;;;11.80;99.90;;;;;;5090334;28;20209;-73
2021/04/27 04:55:43;;;;;;;11.30;10.00;;;11.80;99.90;;;;;;5089997;28;20212;-76
2021/04/27 04:58:09;;;;;;;10.07;9.10;;;11.80;99.90;;;;;;5089815;28;20231;-76
2021/04/27 05:00:36;;;;;;;10.43;9.33;;;11.80;99.90;;;;;;5090406;28;20216;-72
2021/04/27 05:03:02;;;;;;;11.27;10.27;;;11.80;99.90;;;;;;5088147;28;20625;-81
2021/04/27 05:05:29;;;;;;;11.97;10.73;;;11.80;99.90;;;;;;5090496;28;20208;-72
2021/04/27 05:08:01;;;;;;;13.07;10.33;;;11.70;99.90;;;;;;5089936;28;20213;-76
2021/04/27 05:10:49;;;;;;;12.17;10.80;;;11.80;99.90;;;;;;5090716;28;20201;-79
2021/04/27 05:13:16;;;;;;;12.13;11.03;;;11.80;99.90;;;;;;5090023;28;20251;-75
2021/04/27 05:15:43;;;;;;;11.17;9.40;;;11.80;99.90;;;;;;5089954;28;20209;-81
2021/04/27 05:18:10;;;;;;;12.87;10.90;;;11.80;99.90;;;;;;5090018;28;20225;-79
2021/04/27 05:20:37;;;;;;;12.77;11.13;;;11.90;99.90;;;;;;5090689;28;20212;-81
2021/04/27 05:23:05;;;;;;;10.73;9.83;;;11.80;99.90;;;;;;5090162;28;20206;-81
2021/04/27 05:25:32;;;;;;;11.33;10.13;;;11.70;99.90;;;;;;5090563;28;20209;-79
2021/04/27 05:27:59;;;;;;;9.90;9.00;;;11.80;99.90;;;;;;5089643;28;20220;-78
2021/04/27 05:30:25;;;;;;;10.27;8.10;;;11.70;99.90;;;;;;5090028;28;20201;-82
2021/04/27 05:32:52;;;;;;;10.13;9.03;;;11.70;99.90;;;;;;5091365;28;20698;-81
2021/04/27 05:35:18;;;;;;;9.00;8.10;;;11.70;99.90;;;;;;5094064;28;20214;-79
2021/04/27 05:37:45;;;;;;;8.93;8.13;;;11.90;99.90;;;;;;5093580;28;20209;-77
2021/04/27 05:40:12;;;;;;;10.73;9.63;;;12.00;99.90;;;;;;5094057;28;20210;-81
2021/04/27 05:42:39;;;;;;;9.80;8.93;;;12.00;99.90;;;;;;5093846;28;20201;-77
2021/04/27 05:45:08;;;;;;;9.53;8.63;;;12.10;99.90;;;;;;5094256;28;20206;-76
2021/04/27 05:47:35;;;;;;;11.47;10.13;;;12.00;99.90;;;;;;5093372;28;20233;-75
2021/04/27 05:50:01;;;;;;;8.77;7.87;;;11.90;99.90;;;;;;5093287;28;20665;-76
2021/04/27 05:52:28;;;;;;;10.13;8.63;;;12.00;99.90;;;;;;5093932;28;20599;-81
2021/04/27 05:54:54;;;;;;;14.90;10.03;;;12.10;99.90;;;;;;5093892;28;20201;-83
2021/04/27 05:57:20;;;;;;;9.97;8.90;;;12.20;99.90;;;;;;5093541;28;20210;-78
2021/04/27 05:59:47;;;;;;;11.17;10.03;;;12.20;99.90;;;;;;5093140;28;20209;-80
2021/04/27 06:02:14;;;;;;;10.20;9.17;;;12.30;99.90;;;;;;5092076;28;20594;-81
2021/04/27 06:04:41;;;;;;;10.93;9.87;;;12.40;99.90;;;;;;5093084;28;20255;-82
2021/04/27 06:09:48;;;;;;;12.13;10.80;;;12.40;99.90;;;;;;5047610;28;20305;-82
2021/04/27 06:12:15;;;;;;;11.77;10.43;;;12.50;99.90;;;;;;5039705;28;20222;-76
2021/04/27 06:17:24;;;;;;;11.80;10.50;;;12.40;99.90;;;;;;4982592;28;20223;-78
2021/04/27 06:19:50;;;;;;;12.27;10.33;;;12.50;99.90;;;;;;5031708;28;20615;-79
2021/04/27 06:22:17;;;;;;;11.70;9.67;;;12.60;99.90;;;;;;5032033;28;20208;-73
2021/04/27 06:24:43;;;;;;;10.73;9.73;;;12.70;99.90;;;;;;5039985;28;20749;-82
2021/04/27 06:27:10;;;;;;;11.00;9.87;;;12.80;99.90;;;;;;5092606;28;20229;-81
2021/04/27 06:29:37;;;;;;;11.07;9.83;;;13.10;99.90;;;;;;5092998;28;20212;-81
2021/04/27 06:34:47;;;;;;;10.93;9.80;;;13.20;99.90;;;;;;5068608;28;20610;-75
2021/04/27 06:37:14;;;;;;;8.02;7.18;;;13.40;99.90;;;;;;5068460;28;20255;-73
2021/04/27 06:42:21;;;;;;;8.63;7.83;;;13.50;99.90;;;;;;5080496;28;20253;-76
2021/04/27 06:44:48;;;;;;;7.15;6.38;;;13.80;99.90;;;;;;5092410;28;20206;-75
2021/04/27 06:47:15;;;;;;;8.07;6.00;;;13.50;99.90;;;;;;5092571;28;20312;-75
2021/04/27 06:49:42;;;;;;;9.57;5.50;;;13.50;99.90;;;;;;5086534;28;20207;-75
2021/04/27 06:52:10;;;;;;;7.70;6.00;;;13.70;99.90;;;;;;5083689;28;20206;-76
2021/04/27 06:54:37;;;;;;;7.57;5.93;;;13.70;99.90;;;;;;5090671;28;20202;-75
2021/04/27 06:57:04;;;;;;;6.50;5.40;;;13.90;99.90;;;;;;5082562;28;20199;-75
2021/04/27 06:59:33;;;;;;;7.32;4.68;;;14.00;99.90;;;;;;5088246;28;20209;-73
2021/04/27 07:02:01;;;;;;;8.10;6.25;;;14.20;99.90;;;;;;5091819;28;20209;-77
2021/04/27 07:04:28;;;;;;;5.38;4.97;;;14.20;99.90;;;;;;5091054;28;20592;-77
2021/04/27 07:06:54;;;;;;;9.45;6.22;;;14.00;99.90;;;;;;5073171;28;20226;-77
2021/04/27 07:09:25;;;;;;;9.07;6.40;;;14.00;99.90;;;;;;5085109;28;20212;-76
2021/04/27 07:11:51;;;;;;;6.70;5.53;;;14.10;99.90;;;;;;5085612;28;20206;-80
2021/04/27 07:14:18;;;;;;;6.85;5.45;;;14.30;99.90;;;;;;5092244;28;20213;-75
2021/04/27 07:16:44;;;;;;;7.07;5.25;;;14.20;99.90;;;;;;5087253;28;20209;-73
2021/04/27 07:19:11;;;;;;;9.70;5.55;;;14.40;99.90;;;;;;5072902;28;20213;-73
2021/04/27 07:21:39;;;;;;;5.82;5.30;;;14.40;99.90;;;;;;5060842;28;20214;-75
2021/04/27 07:24:07;;;;;;;11.88;5.72;;;14.50;99.90;;;;;;5070706;28;20206;-74
2021/04/27 07:26:36;;;;;;;7.55;5.65;;;14.70;99.90;;;;;;5066537;28;20252;-76
2021/04/27 07:29:03;;;;;;;12.90;6.60;;;14.90;99.90;;;;;;5064209;28;20208;-74
2021/04/27 07:31:30;;;;;;;10.45;6.50;;;15.10;99.90;;;;;;5080933;28;20212;-75
2021/04/27 07:33:57;;;;;;;8.68;5.75;;;15.50;99.90;;;;;;5081174;28;20202;-76
2021/04/27 07:36:23;;;;;;;8.02;5.15;;;15.40;99.90;;;;;;5083712;28;20208;-75
2021/04/27 07:38:50;;;;;;;7.25;5.63;;;15.40;99.90;;;;;;5076291;28;20213;-76
2021/04/27 07:41:16;;;;;;;9.35;5.43;;;15.40;99.90;;;;;;5090051;28;20213;-75
2021/04/27 07:43:44;;;;;;;11.18;5.65;;;15.50;99.90;;;;;;5089558;28;20212;-72
2021/04/27 07:46:10;;;;;;;7.63;5.93;;;15.50;99.90;;;;;;5072778;28;20340;-73
2021/04/27 07:48:39;;;;;;;8.82;5.47;;;15.40;99.90;;;;;;5077120;28;20264;-72
2021/04/27 07:51:05;;;;;;;8.68;6.00;;;15.80;99.90;;;;;;5071270;28;20211;-72
2021/04/27 07:53:32;;;;;;;8.05;5.32;;;15.90;99.90;;;;;;5079118;28;20666;-72
2021/04/27 07:55:58;;;;;;;9.57;5.35;;;15.80;99.90;;;;;;5075712;28;20219;-72
2021/04/27 07:58:25;;;;;;;8.25;6.93;;;16.00;99.90;;;;;;5077395;28;20210;-72
2021/04/27 08:00:52;;;;;;;10.70;6.18;;;16.10;99.90;;;;;;5074300;28;20206;-72
2021/04/27 08:03:19;;;;;;;7.45;5.95;;;16.60;99.90;;;;;;5062843;28;20252;-72
2021/04/27 08:05:46;;;;;;;8.50;6.68;;;16.80;99.90;;;;;;5070435;28;20206;-72
2021/04/27 08:08:13;;;;;;;9.25;5.90;;;16.80;99.90;;;;;;5072707;28;20678;-71
2021/04/27 08:10:39;;;;;;;9.77;6.20;;;16.90;99.90;;;;;;5079478;28;20212;-73
2021/04/27 08:13:06;;;;;;;7.10;5.78;;;16.90;99.90;;;;;;5085419;28;20206;-72
2021/04/27 08:15:33;;;;;;;8.60;4.97;;;16.70;99.90;;;;;;5089658;28;20210;-72
2021/04/27 08:18:02;;;;;;;7.57;6.15;;;16.60;99.90;;;;;;5086195;28;20217;-73
2021/04/27 08:20:30;;;;;;;10.85;6.65;;;16.80;99.90;;;;;;5085453;28;20224;-72
2021/04/27 08:22:57;;;;;;;6.20;5.38;;;16.80;99.90;;;;;;5066701;28;20696;-72
2021/04/27 08:25:26;;;;;;;5.95;5.45;;;16.80;99.90;;;;;;5074577;28;20647;-73
2021/04/27 08:27:53;;;;;;;6.28;5.65;;;16.70;99.90;;;;;;5072522;28;20736;-74
2021/04/27 08:30:22;;;;;;;8.35;6.18;;;16.80;99.90;;;;;;5068359;28;20201;-72
2021/04/27 08:32:48;;;;;;;7.00;5.15;;;16.70;99.90;;;;;;5056209;28;20206;-72
2021/04/27 08:35:16;;;;;;;8.38;5.55;;;16.70;99.90;;;;;;5063999;28;20214;-71
2021/04/27 08:37:43;;;;;;;8.77;5.53;;;16.70;99.90;;;;;;5084578;28;20294;-70
2021/04/27 08:40:12;;;;;;;7.68;5.32;;;16.50;99.90;;;;;;5067238;28;20211;-72
2021/04/27 08:42:39;;;;;;;6.22;4.57;;;16.60;99.90;;;;;;5074306;28;20201;-72
2021/04/27 08:45:08;;;;;;;5.78;5.18;;;16.50;99.90;;;;;;5083393;28;20734;-71
2021/04/27 08:47:35;;;;;;;7.05;5.53;;;16.40;99.90;;;;;;5084458;28;20234;-72
2021/04/27 08:50:03;;;;;;;6.88;4.60;;;16.20;99.90;;;;;;5087876;28;20197;-73
2021/04/27 08:52:30;;;;;;;7.90;4.60;;;16.30;99.90;;;;;;5065254;28;20214;-72
2021/04/27 08:54:57;;;;;;;5.70;4.93;;;16.10;99.90;;;;;;5070013;28;20278;-72
2021/04/27 08:57:23;;;;;;;6.68;5.03;;;15.90;99.90;;;;;;5067632;28;20202;-72
2021/04/27 08:59:50;;;;;;;5.05;4.00;;;15.80;99.90;;;;;;5073899;28;20681;-73
2021/04/27 09:02:26;;;;;;;7.70;4.63;;;16.00;99.90;;;;;;5071948;28;20325;-72
2021/04/27 09:04:58;;;;;;;8.15;4.38;;;16.10;99.90;;;;;;5065911;28;20257;-70
2021/04/27 09:07:28;;;;;;;8.10;5.00;;;16.00;99.90;;;;;;5065636;28;20388;-71
2021/04/27 09:09:57;;;;;;;5.50;4.05;;;15.90;99.90;;;;;;5075033;28;20205;-71
2021/04/27 09:12:26;;;;;;;8.18;5.70;;;15.80;99.90;;;;;;5073614;28;20211;-70
2021/04/27 09:14:54;;;;;;;6.15;4.50;;;15.90;99.90;;;;;;5074344;28;20206;-73
2021/04/27 09:17:25;;;;;;;11.35;5.63;;;15.60;99.90;;;;;;5075661;28;20677;-70
2021/04/27 09:19:52;;;;;;;5.97;5.32;;;15.50;99.90;;;;;;5069067;28;20202;-73
2021/04/27 09:22:21;;;;;;;7.90;4.40;;;15.60;99.90;;;;;;5072898;28;20217;-72
2021/04/27 09:24:49;;;;;;;5.75;4.03;;;15.50;99.90;;;;;;5064151;28;20212;-73
2021/04/27 09:27:29;;;;;;;9.20;5.47;;;15.40;99.90;;;;;;5077655;28;20229;-72
2021/04/27 09:29:57;;;;;;;6.10;4.88;;;15.40;99.90;;;;;;5060392;28;20723;-70
2021/04/27 09:32:32;;;;;;;4.43;4.03;;;15.30;99.90;;;;;;5075279;28;20894;-72
2021/04/27 09:34:59;;;;;;;8.70;5.93;;;15.40;99.90;;;;;;5084584;28;20206;-72
2021/04/27 09:37:25;;;;;;;8.77;5.35;;;15.30;99.90;;;;;;5087425;28;20670;-72
2021/04/27 09:39:53;;;;;;;5.88;4.35;;;15.30;99.90;;;;;;5082961;28;20202;-72
2021/04/27 09:42:21;;;;;;;6.82;5.00;;;15.40;99.90;;;;;;5070035;28;20215;-72
2021/04/27 09:44:50;;;;;;;6.35;5.75;;;15.50;99.90;;;;;;5078257;28;20579;-71
2021/04/27 09:47:20;;;;;;;8.63;4.63;;;15.60;99.90;;;;;;5067371;28;20786;-72
2021/04/27 09:49:58;;;;;;;8.00;5.35;;;15.50;99.90;;;;;;5071080;28;20222;-73
2021/04/27 09:52:26;;;;;;;6.75;6.05;;;15.40;99.90;;;;;;5063935;28;20272;-72
2021/04/27 09:55:14;;;;;;;7.30;5.38;;;15.40;99.90;;;;;;5083089;28;20250;-71
2021/04/27 09:57:47;;;;;;;9.75;6.65;;;15.60;99.90;;;;;;5072344;28;20210;-72
2021/04/27 10:00:27;;;;;;;7.88;6.70;;;15.50;99.90;;;;;;5062247;28;20272;-71
2021/04/27 10:02:55;;;;;;;8.68;6.53;;;15.70;99.90;;;;;;5071992;28;20259;-73
2021/04/27 10:05:23;;;;;;;12.27;7.50;;;15.70;99.90;;;;;;5092210;28;20210;-71
2021/04/27 10:07:50;;;;;;;10.60;7.03;;;15.70;99.90;;;;;;5089354;28;20250;-71
2021/04/27 10:10:20;;;;;;;6.78;5.65;;;15.70;99.90;;;;;;5085224;28;20228;-72
2021/04/27 10:12:48;;;;;;;7.65;5.65;;;15.80;99.90;;;;;;5076011;28;20206;-72
2021/04/27 10:15:15;;;;;;;11.68;6.95;;;15.80;99.90;;;;;;5068316;28;20210;-72
2021/04/27 10:17:44;;;;;;;6.82;6.22;;;15.80;99.90;;;;;;5069033;28;20693;-72
2021/04/27 10:20:13;;;;;;;11.07;8.55;;;15.90;99.90;;;;;;5072413;28;20202;-73
2021/04/27 10:22:42;;;;;;;11.90;9.75;;;16.00;99.90;;;;;;5073483;28;20198;-71
2021/04/27 10:25:16;;;;;;;7.88;6.60;;;16.10;99.90;;;;;;5074281;28;20210;-71
2021/04/27 10:27:44;;;;;;;8.60;6.25;;;16.00;99.90;;;;;;5063500;28;20214;-71
2021/04/27 10:30:31;;;;;;;9.95;6.50;;;15.90;99.90;;;;;;5068273;28;20289;-72
2021/04/27 10:33:19;;;;;;;9.68;6.78;;;16.10;99.90;;;;;;5068332;28;20252;-71
2021/04/27 10:36:08;;;;;;;11.07;7.68;;;16.20;99.90;;;;;;5068024;28;20619;-72
2021/04/27 10:38:47;;;;;;;9.43;8.43;;;16.10;99.90;;;;;;5068693;28;20228;-72
2021/04/27 10:41:16;;;;;;;7.00;6.30;;;16.10;99.90;;;;;;5077370;28;20205;-71
2021/04/27 10:43:57;;;;;;;12.60;7.43;;;16.10;99.90;;;;;;5085700;28;20212;-72
2021/04/27 10:47:02;;;;;;;10.77;7.20;;;16.20;99.90;;;;;;5060108;28;20233;-71
2021/04/27 10:49:42;;;;;;;6.95;6.32;;;16.20;99.90;;;;;;5081307;28;20213;-71
2021/04/27 10:52:26;;;;;;;9.25;6.68;;;16.10;99.90;;;;;;5082762;28;20198;-71
2021/04/27 10:54:53;;;;;;;7.60;6.82;;;16.00;99.90;;;;;;5085458;28;20293;-71
2021/04/27 10:57:20;;;;;;;9.27;7.30;;;16.20;99.90;;;;;;5080557;28;20202;-70
2021/04/27 11:00:02;;;;;;;11.75;6.60;;;16.40;99.90;;;;;;5083766;28;20250;-70
2021/04/27 11:02:30;;;;;;;11.02;7.43;;;16.40;99.90;;;;;;5080289;28;20206;-70
2021/04/27 11:05:01;;;;;;;9.50;5.95;;;16.40;99.90;;;;;;5083134;28;20209;-71
2021/04/27 11:07:36;;;;;;;8.27;7.18;;;16.30;99.90;;;;;;5079272;28;20222;-70
2021/04/27 11:10:31;;;;;;;8.82;7.20;;;16.40;99.90;;;;;;5081688;28;20562;-70
2021/04/27 11:13:01;;;;;;;8.48;6.93;;;16.10;99.90;;;;;;5072172;28;20388;-71
2021/04/27 11:15:30;;;;;;;10.65;7.00;;;16.40;99.90;;;;;;5079809;28;20212;-70
2021/04/27 11:18:02;;;;;;;8.52;6.70;;;16.10;99.90;;;;;;5077083;28;20628;-70
2021/04/27 11:20:54;;;;;;;8.18;7.03;;;16.50;99.90;;;;;;5063200;28;20213;-71
2021/04/27 11:23:42;;;;;;;12.73;5.75;;;16.60;99.90;;;;;;5067690;28;20209;-71
2021/04/27 11:26:49;;;;;;;4.93;4.53;;;16.70;99.90;;;;;;5088809;28;20251;-70
2021/04/27 11:29:19;;;;;;;5.70;4.60;;;16.70;99.90;;;;;;5069111;28;20197;-70
2021/04/27 11:31:54;;;;;;;6.47;4.97;;;16.50;99.90;;;;;;5074911;28;20225;-71
2021/04/27 11:34:20;;;;;;;4.72;4.20;;;16.50;99.90;;;;;;5066398;28;20258;-71
2021/04/27 11:36:48;;;;;;;6.72;4.72;;;17.00;99.90;;;;;;5068480;28;20206;-71
2021/04/27 11:39:16;;;;;;;5.70;4.25;;;17.00;99.90;;;;;;5077728;28;20250;-71
2021/04/27 11:41:45;;;;;;;8.68;4.90;;;17.30;99.90;;;;;;5073472;28;20202;-70
2021/04/27 11:44:11;;;;;;;5.72;4.85;;;17.70;99.90;;;;;;5075250;28;20206;-71
2021/04/27 11:47:03;;;;;;;7.57;5.50;;;17.40;99.90;;;;;;5074221;28;20230;-71
2021/04/27 11:49:51;;;;;;;7.28;5.82;;;17.70;99.90;;;;;;5069503;28;20214;-70
2021/04/27 11:52:44;;;;;;;6.10;5.10;;;17.80;99.90;;;;;;5064344;28;20296;-71
2021/04/27 11:55:26;;;;;;;11.13;5.25;;;17.60;99.90;;;;;;5058841;28;20211;-70
2021/04/27 11:57:55;;;;;;;6.53;5.15;;;17.90;99.90;;;;;;5069368;28;20213;-70
2021/04/27 12:00:30;;;;;;;7.22;5.55;;;17.80;99.90;;;;;;5076211;28;20210;-70
2021/04/27 12:02:57;;;;;;;5.45;4.38;;;18.20;99.90;;;;;;5073943;28;20267;-71
2021/04/27 12:05:24;;;;;;;7.32;5.90;;;17.90;99.90;;;;;;5077802;28;20203;-70
2021/04/27 12:07:51;;;;;;;6.07;4.85;;;17.80;99.90;;;;;;5066754;28;20241;-70
2021/04/27 12:10:18;;;;;;;6.50;4.93;;;17.70;99.90;;;;;;5062687;28;20206;-70
2021/04/27 12:12:48;;;;;;;5.85;5.07;;;17.90;99.90;;;;;;5068632;28;20258;-71
2021/04/27 12:15:15;;;;;;;6.75;5.28;;;18.10;99.90;;;;;;5074296;28;20210;-71
2021/04/27 12:17:42;;;;;;;7.03;5.38;;;18.10;99.90;;;;;;5073033;28;20291;-70
2021/04/27 12:20:12;;;;;;;5.90;4.55;;;17.80;99.90;;;;;;5074110;28;20259;-69
2021/04/27 12:22:44;;;;;;;7.88;3.80;;;17.80;99.90;;;;;;5071940;28;20202;-69
2021/04/27 12:25:25;;;;;;;5.50;4.70;;;17.70;99.90;;;;;;5072011;28;20747;-69
2021/04/27 12:27:54;;;;;;;5.72;4.80;;;17.40;99.90;;;;;;5064890;28;20237;-70
2021/04/27 12:30:24;;;;;;;7.18;4.95;;;17.70;99.90;;;;;;5068217;28;20202;-69
2021/04/27 12:32:59;;;;;;;7.65;6.13;;;17.40;99.90;;;;;;5074764;28;20669;-70
2021/04/27 12:35:26;;;;;;;8.35;5.80;;;17.70;99.90;;;;;;5078640;28;20209;-71
2021/04/27 12:38:03;;;;;;;11.98;6.65;;;17.50;99.90;;;;;;5073959;28;20198;-67
2021/04/27 12:40:33;;;;;;;6.50;4.82;;;17.60;99.90;;;;;;5059744;28;20208;-74
2021/04/27 12:43:03;;;;;;;6.47;5.57;;;17.50;99.90;;;;;;5057537;28;20207;-71
2021/04/27 12:45:42;;;;;;;7.03;4.68;;;17.50;99.90;;;;;;5082982;28;20201;-72
2021/04/27 12:48:09;;;;;;;8.05;5.07;;;17.30;99.90;;;;;;5064016;28;20229;-72
2021/04/27 12:50:51;;;;;;;7.38;5.22;;;17.10;99.90;;;;;;5082874;28;20205;-72
2021/04/27 12:53:19;;;;;;;6.68;5.18;;;17.20;99.90;;;;;;5061310;28;20276;-73
2021/04/27 12:55:52;;;;;;;6.75;5.72;;;17.20;99.90;;;;;;5066641;28;20268;-72
2021/04/27 12:58:22;;;;;;;8.40;5.22;;;17.30;99.90;;;;;;5070602;28;20206;-73
2021/04/27 13:00:51;;;;;;;5.88;5.15;;;17.20;99.90;;;;;;5071781;28;20233;-72
2021/04/27 13:03:19;;;;;;;7.20;5.65;;;17.20;99.90;;;;;;5068900;28;20324;-73